Create Custom Reports and Graphics: Custom Report

Upper Lake

Current Conditions

5/6/26 9:45 PM (-07:00)
Updated Every 15 Minutes
Temp 62.9 °F   7.5
RH 74 %   12
Dew Pt 54.3 °F   3.1
Wet Bulb 58.7 °F   4.8
Wind Dir WNW | 300 °
Wind Spd 2.5 mph   0.4
Wind Gust 7.0 mph   1.4
BatVolt 12.9 V   0.1
Month Precip 0.08 In
Season Precip 29.72 In

Today & Yesterday

Midnight to Midnight

5/6/26 9:45 PM (-07:00)
Updated Every 15 Minutes
Daily Max Temp 78.9 °F   6.0
Time of Max Temp 1654
Daily Min Temp 53.4 °F   4.5
Time of Min Temp 0503
Daily Max Wind 14.0 mph   0.9
Time of Max Wind 1938
Max Wind Dir WNW | 282 °
Daily Rain 0.00 In
Daily Leaf Wet 0.1 Hrs   0.1
Yest MaxT 72.9 °F
Yest MinT 48.9 °F
Yest MaxGst 14.9 mph
Yest Precip 0.00 In
Yest Leaf Wet 0.0 Hrs

Last 30 Days

Upper Lake

Daily Data | America/Los_Angeles
as of 5/6/26 9:56 PM PDT
Date Daily Max Temp (°F) Time of Max Temp Daily Min Temp (°F) Time of Min Temp Daily Rain (In) Month Precip (In) Season Precip (In) Wind Spd (mph) Daily Max Wind (mph) Time of Max Wind Max Wind Dir (°) Dew Pt (°F) Daily Max RH (%) Daily Min RH (%) Hrs <= 32F (hrs) Hrs <= 28F (hrs) Daily Leaf Wet (Hrs) Degree Hrs (hrs) Hrs 70-85F (hrs) Hrs > 95F (hrs) Powdery Mildew Stress (pts) Storm Total (In) Daily Max Rain Intensity (In/Hr) Time of Max Rain Intensity Max 1 Min Rain (In) Max 1 Min Rain Time Max 15 Min Rain (In) Max 15 Min Precip Time Max 60 Min Rain (In) Max 60 Min Rain Time MinBV Day (V)
5/5/26 72.9 1553 48.9 0551 0.00 0.08 29.72 3.3 14.9 1957 NW | 314 50.8 94 50 0.0 0.0 0.0 25.0 1.62 0.00 50 - - - - - - - - - 12.5
5/4/26 59.1 1640 47.3 0321 0.08 0.08 29.72 2.6 16.4 1856 N | 353 48.9 97 75 0.0 0.0 2.9 0.0 0.00 0.00 60 - 0.20 1247 0.01 2120 0.03 1259 0.04 1344 12.5
5/3/26 66.4 1424 47.2 0333 0.00 0.00 29.64 2.8 17.9 2116 W | 278 50.4 99 60 0.0 0.0 3.4 0.7 0.00 0.00 70 - - - - - - - - - 12.6
5/2/26 76.6 1427 47.0 0435 0.00 0.00 29.64 2.1 14.8 1451 S | 172 49.7 99 30 0.0 0.0 3.7 62.4 6.66 0.00 80 - - - - - - - - - 12.6
5/1/26 81.3 1720 43.8 0616 0.00 0.00 29.64 1.6 10.6 1504 S | 176 50.7 100 32 0.0 0.0 4.9 125.4 9.62 0.00 60 - - - - - - - - - 12.6
4/30/26 81.6 1605 39.2 0612 0.00 3.57 29.64 2.0 15.0 1601 N | 3 47.1 100 29 0.0 0.0 4.3 112.1 9.18 0.00 40 - - - - - - - - - 12.6
4/29/26 77.5 1514 38.6 0633 0.00 3.57 29.64 2.2 15.2 1724 N | 350 44.5 100 25 0.0 0.0 5.4 68.5 7.19 0.00 20 - - - - - - - - - 12.6
4/28/26 71.5 1616 36.4 0625 0.00 3.57 29.64 2.5 19.1 1744 N | 353 44.5 100 36 0.0 0.0 6.3 22.7 1.52 0.00 0 - - - - - - - - - 12.6
4/27/26 64.6 1549 43.3 0600 0.01 3.57 29.64 3.1 15.8 1700 WSW | 243 44.9 96 43 0.0 0.0 0.7 0.0 0.00 0.00 0 - 0.01 0310 0.01 0311 0.01 0325 0.01 0410 12.5
4/26/26 61.9 1503 46.5 0640 0.00 3.56 29.63 3.4 22.1 1748 WNW | 298 42.6 85 48 0.0 0.0 0.0 0.0 0.00 0.00 0 - - - - - - - - - 12.5
4/25/26 63.6 1425 42.2 0615 0.00 3.56 29.63 2.9 13.3 1929 NW | 305 45.9 100 59 0.0 0.0 6.9 0.0 0.00 0.00 0 - - - - - - - - - 12.6
4/24/26 72.3 1511 39.0 0629 0.00 3.56 29.63 2.2 13.8 1933 WSW | 258 46.2 100 25 0.0 0.0 8.0 31.6 3.22 0.00 0 - - - - - - - - - 12.6
4/23/26 70.7 1735 35.6 0617 0.00 3.56 29.63 2.0 12.3 1824 WNW | 293 43.2 100 32 0.0 0.0 8.0 18.1 0.26 0.00 0 - - - - - - - - - 12.6
4/22/26 61.9 1622 41.0 0058 0.04 3.56 29.63 2.2 13.9 1447 SE | 124 44.6 100 47 0.0 0.0 7.1 0.0 0.00 0.00 0 1.11 0.04 0342 0.01 0544 0.01 0558 0.02 0427 12.6
4/21/26 57.9 1625 41.8 2355 0.19 3.52 29.59 2.0 15.2 1538 NNW | 329 45.0 100 56 0.0 0.0 8.4 0.0 0.00 0.00 0 1.07 0.28 0910 0.01 1419 0.04 0946 0.11 1003 12.5
4/20/26 54.6 1404 43.3 0400 0.88 3.33 29.40 1.8 15.9 1050 SE | 146 45.8 99 50 0.0 0.0 15.9 0.0 0.00 0.00 0 0.88 0.46 1613 0.01 0040 0.06 1627 0.14 1659 12.5
4/19/26 69.4 1558 37.6 0656 0.00 2.45 28.52 1.8 17.2 1625 SSE | 158 36.0 100 16 0.0 0.0 4.3 8.0 0.00 0.00 0 - - - - - - - - - 12.5
4/18/26 73.4 1454 34.7 0622 0.00 2.45 28.52 1.9 13.4 1315 S | 174 41.1 100 21 0.0 0.0 4.4 39.2 4.76 0.00 0 - - - - - - - - - 12.6
4/17/26 71.8 1715 31.2 0638 0.00 2.45 28.52 2.3 11.8 1150 SSE | 162 33.1 92 19 0.8 0.0 0.0 23.6 1.42 0.00 10 - - - - - - - - - 12.6
4/16/26 66.3 1615 34.7 0653 0.00 2.45 28.52 3.1 14.1 1432 SE | 146 36.7 97 25 0.0 0.0 0.4 0.4 0.00 0.00 20 - - - - - - - - - 12.5
4/15/26 64.5 1421 41.1 0659 0.00 2.45 28.52 4.4 22.0 1551 WNW | 295 44.6 96 51 0.0 0.0 0.1 0.0 0.00 0.00 30 - - - - - - - - - 12.5
4/14/26 66.1 1552 36.3 0608 0.00 2.45 28.52 3.1 15.9 2035 NW | 323 43.4 100 48 0.0 0.0 6.6 0.3 0.00 0.00 40 - - - - - - - - - 12.6
4/13/26 63.6 1654 35.9 0524 0.00 2.45 28.52 2.8 16.6 1638 NW | 308 42.1 100 45 0.0 0.0 7.3 0.0 0.00 0.00 50 - - - - - - - - - 12.6
4/12/26 55.4 1723 42.8 0918 0.76 2.45 28.52 2.5 14.7 1425 NNW | 329 42.9 97 58 0.0 0.0 10.3 0.0 0.00 0.00 60 2.26 0.66 0902 0.01 1622 0.10 0916 0.22 1043 12.5
4/11/26 53.6 1403 42.0 2136 0.90 1.69 27.76 3.0 20.3 1406 SSE | 154 46.4 100 74 0.0 0.0 13.7 0.0 0.00 0.00 70 1.50 4.00 1620 0.04 1620 0.15 1630 0.28 1709 12.5
4/10/26 59.6 1307 46.0 0259 0.60 0.79 26.86 1.5 12.1 1247 SSE | 157 49.7 99 66 0.0 0.0 9.9 0.0 0.00 0.00 80 0.60 2.00 1406 0.02 1407 0.12 1416 0.14 1501 12.5
4/9/26 70.1 1522 44.4 0506 0.00 0.19 26.26 2.2 14.8 1733 SSE | 157 49.6 100 48 0.0 0.0 7.4 14.8 0.01 0.00 90 - - - - - - - - - 12.6
4/8/26 77.8 1535 42.6 0640 0.00 0.19 26.26 2.0 17.1 1637 W | 266 47.8 97 41 0.0 0.0 0.0 69.4 7.68 0.00 100 - - - - - - - - - 12.5
4/7/26 76.9 1446 39.8 0637 0.00 0.19 26.26 2.6 17.3 1628 NNW | 328 40.0 99 17 0.0 0.0 4.7 70.2 6.96 0.00 100 - - - - - - - - - 12.5
4/6/26 79.8 1533 36.9 0704 0.00 0.19 26.26 2.6 18.2 1500 SE | 142 42.8 99 15 0.0 0.0 3.2 90.0 7.81 0.00 100 - - - - - - - - - 12.5
Max 81.6 - 48.9 - 0.90 3.57 29.72 4.4 22.1 - - 50.8 100 75 0.8 0.0 15.9 125.4 9.62 0.00 - 2.26 4.00 - 0.04 - 0.15 - 0.28 - 12.6
Avg - - - - - - - 2.5 - - - 44.7 - - 0.0 0.0 - - 2.26 0.00 - 1.24 - - - - - - - - -
Min 53.6 - 31.2 - 0.00 0.00 26.26 1.5 10.6 - - 33.1 85 15 0.0 0.0 0.0 0.0 0.00 0.00 - 0.60 0.01 - 0.01 - 0.01 - 0.01 - 12.5
Total - - - - - - - - - - - - - - 0.8 0.0 - - 67.90 0.00 - - - - - - - - - - -

Last 7 Days

Upper Lake

Hourly Data | America/Los_Angeles
as of 5/6/26 9:56 PM PDT
Date & Time Temp (°F) RH (%) Dew Pt (°F) Wet Bulb (°F) Wind Dir (°) Wind Spd (mph) Wind Gust (mph) Leaf Wet (mins) BatVolt (V) Latest Rain (In) Max Rain Intensity (In/Hr) Precip 24Hr (In) Daily Rain (In) Daily Min Temp (°F) Daily Max Temp (°F) Daily Max Wind (mph) Daily Leaf Wet (Hrs)
5/6/26 - 2100 65.3 70 55.3 60.1 WNW | 296 4.0 13.3 0.0 13.0 0.00 - - 0.00 53.4 78.9 14.0 0.1
5/6/26 - 2000 68.9 64 56.5 61.9 WNW | 289 5.0 14.0 0.0 13.2 0.00 - - 0.00 53.4 78.9 14.0 0.1
5/6/26 - 1900 73.4 58 58.0 64.0 WNW | 293 5.1 13.9 5.1 13.5 0.00 - - 0.00 53.4 78.9 13.9 0.1
5/6/26 - 1800 77.1 54 59.3 65.7 NW | 311 4.8 12.5 0.0 13.4 0.00 - - 0.00 53.4 78.9 12.5 0.0
5/6/26 - 1700 78.1 51 58.8 65.5 WNW | 298 3.8 12.3 0.0 13.3 0.00 - - 0.00 53.4 78.9 12.3 0.0
5/6/26 - 1600 77.0 51 57.3 64.3 NW | 305 4.4 12.0 0.0 13.4 0.00 - - 0.00 53.4 78.2 12.0 0.0
5/6/26 - 1500 74.8 55 57.6 64.1 WSW | 242 3.5 11.1 0.0 13.4 0.00 - - 0.00 53.4 76.5 11.3 0.0
5/6/26 - 1400 71.2 60 56.6 62.6 SE | 144 3.6 9.5 0.0 13.5 0.00 - - 0.00 53.4 73.2 11.3 0.0
5/6/26 - 1300 68.5 62 55.0 60.8 SSE | 158 3.9 11.3 0.0 13.5 0.00 - - 0.00 53.4 70.0 11.3 0.0
5/6/26 - 1200 66.0 65 54.0 59.4 SSE | 148 3.0 9.1 0.0 13.6 0.00 - - 0.00 53.4 67.8 9.1 0.0
5/6/26 - 1100 62.6 72 53.4 58.0 SW | 223 2.0 6.6 0.0 13.6 0.00 - - 0.00 53.4 64.5 7.2 0.0
5/6/26 - 1000 59.0 83 53.9 57.1 SSE | 147 1.1 4.5 0.0 13.3 0.00 - - 0.00 53.4 60.8 7.2 0.0
5/6/26 - 0900 56.5 89 53.2 55.7 WNW | 282 0.4 2.1 0.0 12.8 0.00 - - 0.00 53.4 57.7 7.2 0.0
5/6/26 - 0800 55.1 91 52.6 54.7 SW | 232 0.8 3.6 0.0 12.7 0.00 - - 0.00 53.4 55.9 7.2 0.0
5/6/26 - 0700 54.0 94 52.3 54.1 WNW | 282 1.1 3.8 0.0 12.6 0.00 - - 0.00 53.4 54.8 7.2 0.0
5/6/26 - 0600 53.5 96 52.3 53.8 W | 271 1.2 3.5 0.0 12.6 0.00 - - 0.00 53.4 54.8 7.2 0.0
5/6/26 - 0500 53.9 93 52.0 53.8 WSW | 256 0.4 2.4 0.0 12.6 0.00 - - 0.00 53.5 54.8 7.2 0.0
5/6/26 - 0400 54.5 89 51.4 53.7 W | 266 0.6 2.8 0.0 12.6 0.00 - - 0.00 54.2 54.8 7.2 0.0
5/6/26 - 0300 54.7 88 51.2 53.6 WNW | 296 0.4 3.3 0.0 12.7 0.00 - - 0.00 54.6 54.8 7.2 0.0
5/6/26 - 0200 54.6 87 51.0 53.5 W | 281 1.9 7.2 0.0 12.7 0.00 - - 0.00 54.6 54.8 7.2 0.0
5/6/26 - 0100 54.7 87 51.0 53.5 W | 278 2.2 6.8 0.0 12.7 0.00 - - 0.00 48.9 72.9 14.9 0.0
5/6/26 - 0000 54.9 87 51.0 53.6 WNW | 285 2.6 9.0 0.0 12.8 0.00 - - 0.00 48.9 72.9 14.9 0.0
5/5/26 - 2300 55.1 86 51.0 53.7 W | 280 2.6 9.1 0.0 12.9 0.00 - - 0.00 48.9 72.9 14.9 0.0
5/5/26 - 2200 55.5 85 51.2 53.9 WNW | 293 3.1 10.6 0.0 13.0 0.00 - - 0.00 48.9 72.9 14.9 0.0
5/5/26 - 2100 57.6 81 51.7 55.1 WNW | 293 4.4 12.4 0.0 13.1 0.00 - 0.01 0.00 48.9 72.9 14.9 0.0
5/5/26 - 2000 61.6 72 52.7 57.2 WNW | 287 5.8 14.9 0.0 13.3 0.00 - 0.02 0.00 48.9 72.9 14.9 0.0
5/5/26 - 1900 66.2 65 54.0 59.5 WNW | 294 4.9 12.8 0.0 13.6 0.00 - 0.02 0.00 48.9 72.9 13.6 0.0
5/5/26 - 1800 69.0 60 54.4 60.6 WNW | 291 4.9 13.6 0.0 13.5 0.00 - 0.02 0.00 48.9 72.9 13.6 0.0
5/5/26 - 1700 71.5 55 54.5 61.3 WNW | 295 4.2 12.4 0.0 13.4 0.00 - 0.02 0.00 48.9 72.9 12.4 0.0
5/5/26 - 1600 71.4 55 54.5 61.3 W | 268 3.6 9.9 0.0 13.4 0.00 - 0.02 0.00 48.9 72.9 10.6 0.0
5/5/26 - 1500 69.3 59 54.4 60.7 SW | 228 3.8 10.2 0.0 13.5 0.00 - 0.02 0.00 48.9 71.2 10.6 0.0
5/5/26 - 1400 67.4 61 53.7 59.7 S | 183 3.3 9.1 0.0 13.5 0.00 - 0.02 0.00 48.9 68.8 10.6 0.0
5/5/26 - 1300 64.7 67 53.5 58.7 SE | 128 4.2 9.6 0.0 13.6 0.00 - 0.03 0.00 48.9 67.0 10.6 0.0
5/5/26 - 1200 61.9 69 51.5 56.6 SSE | 163 3.3 9.2 0.0 13.6 0.00 - 0.06 0.00 48.9 63.6 10.6 0.0
5/5/26 - 1100 59.1 74 50.8 55.1 WSW | 258 2.5 8.0 0.0 13.7 0.00 - 0.08 0.00 48.9 61.9 10.6 0.0
5/5/26 - 1000 55.8 79 49.6 53.1 W | 261 3.3 9.8 0.0 13.4 0.00 - 0.08 0.00 48.9 58.5 10.6 0.0
5/5/26 - 0900 53.6 83 48.6 51.6 WNW | 282 3.7 9.6 0.0 13.0 0.00 - 0.08 0.00 48.9 55.0 10.6 0.0
5/5/26 - 0800 51.4 88 48.1 50.3 NW | 318 2.2 6.9 0.0 12.7 0.00 - 0.08 0.00 48.9 52.4 10.6 0.0
5/5/26 - 0700 50.1 91 47.7 49.5 WNW | 297 1.9 5.4 0.0 12.6 0.00 - 0.08 0.00 48.9 50.9 10.6 0.0
5/5/26 - 0600 49.6 91 47.2 49.0 NW | 314 2.2 8.4 0.0 12.6 0.00 - 0.08 0.00 48.9 50.9 10.6 0.0
5/5/26 - 0500 50.4 90 47.4 49.5 WNW | 287 2.8 9.9 0.0 12.6 0.00 - 0.08 0.00 50.0 50.9 10.6 0.0
5/5/26 - 0400 50.3 89 47.3 49.4 WNW | 299 1.9 7.2 0.0 12.6 0.00 - 0.08 0.00 50.0 50.9 10.6 0.0
5/5/26 - 0300 50.3 89 47.1 49.2 WNW | 297 2.7 7.3 0.0 12.7 0.00 - 0.08 0.00 50.0 50.9 10.6 0.0
5/5/26 - 0200 50.7 88 47.2 49.5 NW | 312 3.6 10.6 0.0 12.7 0.00 - 0.08 0.00 50.5 50.9 10.6 0.0
5/5/26 - 0100 51.0 86 47.0 49.6 NW | 317 3.6 14.6 0.0 12.7 0.00 - 0.08 0.08 47.3 59.1 16.4 2.9
5/5/26 - 0000 50.9 88 47.6 49.8 NW | 309 3.3 13.9 0.0 12.8 0.00 - 0.08 0.08 47.3 59.1 16.4 2.9
5/4/26 - 2300 51.3 89 48.1 50.3 NW | 316 3.9 14.5 0.0 12.9 0.00 - 0.08 0.08 47.3 59.1 16.4 2.9
5/4/26 - 2200 51.7 89 48.6 50.8 NNW | 329 3.0 12.0 25.4 13.0 0.01 0.01 0.08 0.08 47.3 59.1 16.4 2.9
5/4/26 - 2100 52.6 88 49.3 51.6 NW | 315 3.7 14.1 13.9 13.1 0.01 0.01 0.07 0.07 47.3 59.1 16.4 2.4
5/4/26 - 2000 53.6 87 49.7 52.3 NW | 306 3.9 13.6 0.0 13.2 0.00 - 0.06 0.06 47.3 59.1 16.4 2.2
5/4/26 - 1900 56.2 82 50.6 53.9 WNW | 291 3.8 16.4 0.0 13.4 0.00 - 0.06 0.06 47.3 59.1 16.4 2.2
5/4/26 - 1800 57.3 80 51.3 54.8 WNW | 290 3.8 10.4 0.0 13.5 0.00 - 0.06 0.06 47.3 59.1 12.1 2.2
5/4/26 - 1700 58.2 79 51.8 55.4 W | 259 1.4 4.6 0.0 13.6 0.00 - 0.06 0.06 47.3 59.1 12.1 2.2
5/4/26 - 1600 57.7 81 51.9 55.3 S | 187 2.0 5.6 0.0 13.6 0.00 - 0.06 0.06 47.3 58.1 12.1 2.2
5/4/26 - 1500 56.9 82 51.5 54.7 SE | 124 1.2 4.2 0.0 13.6 0.00 - 0.06 0.06 47.3 57.6 12.1 2.2
5/4/26 - 1400 53.8 90 51.1 53.2 W | 259 2.1 6.6 21.2 13.9 0.01 0.01 0.06 0.06 47.3 56.1 12.1 2.2
5/4/26 - 1300 52.5 91 50.1 52.0 W | 280 2.6 11.2 48.2 13.3 0.03 0.20 0.05 0.05 47.3 54.5 12.1 1.9
5/4/26 - 1200 51.7 90 48.8 50.9 WNW | 289 3.5 9.3 56.4 13.1 0.02 0.02 0.02 0.02 47.3 54.5 12.1 1.1
5/4/26 - 1100 52.1 86 48.0 50.6 WNW | 293 3.6 11.4 7.3 13.0 0.00 - - 0.00 47.3 54.5 12.1 0.1
5/4/26 - 1000 53.4 82 48.3 51.4 WNW | 303 3.6 10.0 0.0 13.0 0.00 - - 0.00 47.3 54.5 12.1 0.0
5/4/26 - 0900 52.5 85 48.0 50.8 WNW | 288 2.8 8.8 0.0 12.8 0.00 - - 0.00 47.3 53.4 12.1 0.0
5/4/26 - 0800 52.1 86 48.0 50.6 WNW | 282 1.8 5.5 0.0 12.6 0.00 - - 0.00 47.3 52.5 12.1 0.0
5/4/26 - 0700 51.1 88 47.8 50.0 WNW | 296 1.8 5.9 0.0 12.6 0.00 - - 0.00 47.3 51.6 12.1 0.0
5/4/26 - 0600 50.5 89 47.6 49.6 W | 281 2.4 7.8 0.0 12.6 0.00 - - 0.00 47.3 51.3 12.1 0.0
5/4/26 - 0500 50.0 90 47.3 49.2 WNW | 292 3.1 12.1 0.0 12.6 0.00 - - 0.00 47.3 51.3 12.1 0.0
5/4/26 - 0400 48.0 96 47.0 48.1 NNW | 327 0.3 2.5 0.0 12.6 0.00 - - 0.00 47.3 51.3 6.0 0.0
5/4/26 - 0300 49.5 91 47.1 48.9 W | 278 0.2 1.9 0.0 12.6 0.00 - - 0.00 48.0 51.3 6.0 0.0
5/4/26 - 0200 51.0 89 47.9 50.0 WNW | 300 1.8 6.0 0.0 12.6 0.00 - - 0.00 50.9 51.3 6.0 0.0
5/4/26 - 0100 51.2 88 47.7 50.0 WNW | 293 2.8 8.1 0.0 12.7 0.00 - - 0.00 47.2 66.4 17.9 3.4
5/4/26 - 0000 51.5 87 47.8 50.2 WNW | 297 4.0 11.5 0.0 12.7 0.00 - - 0.00 47.2 66.4 17.9 3.4
5/3/26 - 2300 52.2 87 48.4 50.9 WNW | 292 5.9 16.0 0.0 12.7 0.00 - - 0.00 47.2 66.4 17.9 3.4
5/3/26 - 2200 53.7 84 49.1 51.9 WNW | 290 5.3 17.9 0.0 12.8 0.00 - - 0.00 47.2 66.4 17.9 3.4
5/3/26 - 2100 55.8 81 50.1 53.4 WNW | 287 4.1 13.6 0.0 12.9 0.00 - - 0.00 47.2 66.4 13.6 3.4
5/3/26 - 2000 57.5 79 51.0 54.6 WNW | 284 2.8 9.8 0.0 13.0 0.00 - - 0.00 47.2 66.4 12.1 3.4
5/3/26 - 1900 59.4 76 51.9 55.9 WNW | 288 3.3 10.0 0.0 13.1 0.00 - - 0.00 47.2 66.4 12.1 3.4
5/3/26 - 1800 62.0 71 52.3 57.1 W | 280 3.0 12.1 0.0 13.3 0.00 - - 0.00 47.2 66.4 12.1 3.4
5/3/26 - 1700 64.4 66 52.8 58.2 SSE | 150 4.7 10.2 0.0 13.6 0.00 - - 0.00 47.2 66.4 11.8 3.4
5/3/26 - 1600 65.3 66 53.5 58.9 SE | 144 5.2 10.2 0.0 13.6 0.00 - - 0.00 47.2 66.4 11.8 3.4
5/3/26 - 1500 65.4 65 53.5 59.0 SE | 136 4.6 9.5 0.0 13.6 0.00 - - 0.00 47.2 66.4 11.8 3.4
5/3/26 - 1400 64.1 68 53.4 58.5 SSE | 148 5.3 11.8 0.0 13.6 0.00 - - 0.00 47.2 65.4 11.8 3.4
5/3/26 - 1300 62.2 72 53.2 57.7 S | 187 2.8 11.0 0.0 13.6 0.00 - - 0.00 47.2 63.8 11.0 3.4
5/3/26 - 1200 59.7 76 52.1 56.1 W | 259 2.0 8.1 0.0 13.7 0.00 - - 0.00 47.2 62.3 9.0 3.4
5/3/26 - 1100 56.4 83 51.2 54.3 SSW | 208 1.8 5.6 0.0 13.6 0.00 - - 0.00 47.2 57.4 9.0 3.4
5/3/26 - 1000 54.7 87 50.9 53.5 W | 276 1.8 6.1 0.0 13.2 0.00 - - 0.00 47.2 55.8 9.0 3.4
5/3/26 - 0900 53.4 89 50.2 52.5 WNW | 294 2.2 9.0 0.0 12.8 0.00 - - 0.00 47.2 54.0 9.0 3.4
5/3/26 - 0800 51.7 92 49.5 51.3 NW | 313 1.6 5.5 0.0 12.7 0.00 - - 0.00 47.2 52.8 8.9 3.4
5/3/26 - 0700 50.6 94 49.1 50.6 NW | 308 2.2 8.9 10.2 12.6 0.00 - - 0.00 47.2 51.3 8.9 3.4
5/3/26 - 0600 49.4 99 49.0 49.9 WNW | 297 1.6 8.4 60.0 12.6 0.00 - - 0.00 47.2 50.8 8.4 3.3
5/3/26 - 0500 48.0 99 47.7 48.6 SE | 134 0.6 2.5 60.0 12.6 0.00 - - 0.00 47.2 50.5 2.5 2.3
5/3/26 - 0400 47.9 98 47.4 48.2 NW | 325 0.2 2.3 60.0 12.6 0.00 - - 0.00 47.2 50.5 2.3 1.3
5/3/26 - 0300 48.9 97 48.2 49.3 WNW | 283 0.3 2.3 15.0 12.7 0.00 - - 0.00 48.4 50.5 2.3 0.3
5/3/26 - 0200 49.8 96 48.7 50.0 N | 350 0.2 2.2 0.0 12.7 0.00 - - 0.00 49.1 50.5 2.2 0.0
5/3/26 - 0100 50.8 96 49.7 51.0 WNW | 290 0.4 2.2 0.0 12.7 0.00 - - 0.00 47.0 76.6 14.8 3.7
5/3/26 - 0000 51.3 94 49.7 51.2 NW | 310 0.2 1.5 0.0 12.8 0.00 - - 0.00 47.0 76.6 14.8 3.7
5/2/26 - 2300 54.0 89 50.8 53.1 SSE | 154 0.4 2.4 0.0 12.8 0.00 - - 0.00 47.0 76.6 14.8 3.7
5/2/26 - 2200 56.1 84 51.4 54.4 NNW | 332 0.8 2.4 0.0 12.9 0.00 - - 0.00 47.0 76.6 14.8 3.7
5/2/26 - 2100 58.2 77 50.8 54.8 NNW | 347 0.6 2.2 0.0 13.0 0.00 - - 0.00 47.0 76.6 14.8 3.7
5/2/26 - 2000 64.3 60 50.1 56.5 ESE | 120 2.2 7.5 0.0 13.2 0.00 - - 0.00 47.0 76.6 14.8 3.7
5/2/26 - 1900 68.5 49 48.2 56.8 SE | 128 2.9 10.0 0.0 13.5 0.00 - - 0.00 47.0 76.6 14.8 3.7
5/2/26 - 1800 71.7 42 47.2 57.2 SSE | 152 4.3 12.5 0.0 13.5 0.00 - - 0.00 47.0 76.6 14.8 3.7
5/2/26 - 1700 73.9 36 45.2 56.8 SSE | 155 4.9 11.5 0.0 13.4 0.00 - - 0.00 47.0 76.6 14.8 3.7
5/2/26 - 1600 75.0 38 47.6 58.3 SSE | 159 5.7 12.4 0.0 13.4 0.00 - - 0.00 47.0 76.6 14.8 3.7
5/2/26 - 1500 75.4 36 46.8 58.0 SSE | 153 6.0 14.8 0.0 13.4 0.00 - - 0.00 47.0 76.6 14.8 3.7
5/2/26 - 1400 74.3 42 49.6 59.2 SSE | 153 5.0 11.4 0.0 13.4 0.00 - - 0.00 47.0 75.7 11.4 3.7
5/2/26 - 1300 71.8 50 52.4 60.1 SSE | 158 4.7 10.8 0.0 13.5 0.00 - - 0.00 47.0 73.1 10.8 3.7
5/2/26 - 1200 70.0 57 54.1 60.7 SSE | 156 3.3 9.2 0.0 13.5 0.00 - - 0.00 47.0 71.4 9.2 3.7
5/2/26 - 1100 66.7 64 54.3 59.9 SE | 130 2.3 6.0 0.0 13.6 0.00 - - 0.00 47.0 68.4 6.5 3.7
5/2/26 - 1000 62.4 74 53.9 58.3 SSE | 152 1.5 4.8 0.0 13.1 0.00 - - 0.00 47.0 64.6 6.5 3.7
5/2/26 - 0900 57.9 82 52.3 55.6 SE | 129 1.2 3.4 0.0 13.0 0.00 - - 0.00 47.0 60.2 6.5 3.7
5/2/26 - 0800 51.2 95 49.8 51.2 E | 99 1.0 4.6 6.3 12.8 0.00 - - 0.00 47.0 54.4 6.5 3.7
5/2/26 - 0700 49.3 98 48.7 49.7 N | 355 1.6 6.5 60.0 12.6 0.00 - - 0.00 47.0 51.0 6.5 3.6
5/2/26 - 0600 48.0 99 47.6 48.5 NW | 322 0.3 2.2 60.0 12.6 0.00 - - 0.00 47.0 51.0 3.3 2.6
5/2/26 - 0500 47.6 98 47.1 48.0 NW | 321 0.2 3.3 60.0 12.6 0.00 - - 0.00 47.0 51.0 3.3 1.6
5/2/26 - 0400 48.3 97 47.6 48.6 NW | 315 0.3 1.4 33.9 12.6 0.00 - - 0.00 47.4 51.0 1.9 0.6
5/2/26 - 0300 49.3 97 48.4 49.6 NW | 315 0.3 1.9 0.0 12.6 0.00 - - 0.00 48.2 51.0 1.9 0.0
5/2/26 - 0200 50.0 96 48.9 50.2 NW | 320 0.5 1.8 0.0 12.7 0.00 - - 0.00 49.3 51.0 1.8 0.0
5/2/26 - 0100 51.3 94 49.5 51.1 NW | 317 0.3 1.6 0.0 12.7 0.00 - - 0.00 43.8 81.3 10.6 4.9
5/2/26 - 0000 54.0 90 51.2 53.3 NW | 323 0.2 1.9 0.0 12.7 0.00 - - 0.00 43.8 81.3 10.6 4.9
5/1/26 - 2300 56.0 85 51.6 54.4 NW | 318 0.2 1.9 0.0 12.8 0.00 - - 0.00 43.8 81.3 10.6 4.9
5/1/26 - 2200 62.5 68 51.7 56.9 WNW | 302 1.0 5.9 0.0 12.8 0.00 - - 0.00 43.8 81.3 10.6 4.9
5/1/26 - 2100 67.2 62 53.4 59.5 WNW | 293 2.7 9.5 0.0 13.0 0.00 - - 0.00 43.8 81.3 10.6 4.9
5/1/26 - 2000 72.2 56 55.7 62.2 WNW | 291 1.9 8.4 0.0 13.1 0.00 - - 0.00 43.8 81.3 10.6 4.9
5/1/26 - 1900 77.4 45 54.3 62.6 W | 272 2.7 8.9 0.0 13.3 0.00 - - 0.00 43.8 81.3 10.6 4.9
5/1/26 - 1800 80.6 39 53.3 62.6 S | 178 2.5 9.3 0.0 13.3 0.00 - - 0.00 43.8 81.3 10.6 4.9
5/1/26 - 1700 80.1 39 52.9 62.2 SE | 138 4.1 9.5 0.0 13.3 0.00 - - 0.00 43.8 80.9 10.6 4.9
5/1/26 - 1600 80.3 38 52.1 61.9 SE | 141 4.4 10.6 0.0 13.3 0.00 - - 0.00 43.8 80.9 10.6 4.9
5/1/26 - 1500 80.1 38 51.9 61.7 SE | 145 4.0 8.3 0.0 13.3 0.00 - - 0.00 43.8 80.5 8.3 4.9
5/1/26 - 1400 79.2 42 54.0 62.7 SE | 140 3.3 8.3 0.0 13.3 0.00 - - 0.00 43.8 80.1 8.3 4.9
5/1/26 - 1300 77.4 42 52.7 61.6 SSE | 150 2.9 6.4 0.0 13.4 0.00 - - 0.00 43.8 78.8 6.4 4.9
5/1/26 - 1200 74.5 49 54.2 61.9 SE | 126 1.9 5.7 0.0 13.4 0.00 - - 0.00 43.8 76.1 5.7 4.9
5/1/26 - 1100 70.9 55 54.0 60.8 SE | 140 2.1 5.2 0.0 13.5 0.00 - - 0.00 43.8 72.7 5.2 4.9
5/1/26 - 1000 65.6 63 52.5 58.4 E | 101 1.4 3.8 0.0 12.9 0.00 - - 0.00 43.8 68.4 3.8 4.9
5/1/26 - 0900 58.6 80 52.3 55.8 ESE | 118 0.8 3.0 0.7 12.7 0.00 - - 0.00 43.8 62.9 3.0 4.9
5/1/26 - 0800 48.4 100 48.3 49.1 NNE | 29 0.2 1.6 60.0 12.6 0.00 - - 0.00 43.8 53.4 2.5 4.9
5/1/26 - 0700 44.5 99 44.2 44.8 N | 355 0.4 1.8 60.0 12.6 0.00 - - 0.00 43.8 50.0 2.5 3.9
5/1/26 - 0600 44.8 98 44.5 45.1 N | 352 0.5 2.0 60.0 12.6 0.00 - - 0.00 43.9 50.0 2.5 2.9
5/1/26 - 0500 45.3 98 44.8 45.6 NW | 314 0.2 1.6 60.0 12.6 0.00 - - 0.00 44.9 50.0 2.5 1.9
5/1/26 - 0400 46.0 97 45.3 46.2 NNW | 337 0.3 2.4 53.3 12.6 0.00 - - 0.00 45.4 50.0 2.5 0.9
5/1/26 - 0300 47.0 96 46.0 47.1 WNW | 282 0.3 2.1 0.0 12.6 0.00 - - 0.00 46.5 50.0 2.5 0.0
5/1/26 - 0200 48.5 95 47.1 48.4 ESE | 107 0.4 2.5 0.0 12.7 0.00 - - 0.00 47.4 50.0 2.5 0.0
5/1/26 - 0100 50.4 91 48.0 49.8 WSW | 245 0.4 2.5 0.0 12.7 0.00 - - 0.00 39.2 81.6 15.0 4.3
5/1/26 - 0000 52.7 83 47.9 50.8 NNW | 329 0.9 3.1 0.0 12.7 0.00 - - 0.00 39.2 81.6 15.0 4.3
4/30/26 - 2300 54.0 80 47.8 51.3 NW | 317 1.4 3.5 0.0 12.8 0.00 - - 0.00 39.2 81.6 15.0 4.3
4/30/26 - 2200 57.4 76 49.9 54.0 NW | 324 0.9 2.4 0.0 12.9 0.00 - - 0.00 39.2 81.6 15.0 4.3
4/30/26 - 2100 67.2 51 48.2 56.3 NW | 318 2.6 10.8 0.0 13.0 0.00 - - 0.00 39.2 81.6 15.0 4.3
4/30/26 - 2000 71.7 44 48.6 57.9 WNW | 294 4.4 12.8 0.0 13.2 0.00 - - 0.00 39.2 81.6 15.0 4.3
4/30/26 - 1900 76.0 42 51.0 60.3 WNW | 300 4.4 12.6 0.0 13.4 0.00 - - 0.00 39.2 81.6 15.0 4.3
4/30/26 - 1800 78.5 39 51.7 61.2 WNW | 299 5.2 13.3 0.0 13.4 0.00 - - 0.00 39.2 81.6 15.0 4.3
4/30/26 - 1700 80.3 36 51.1 61.3 WNW | 292 4.4 15.0 0.0 13.3 0.00 - - 0.00 39.2 81.6 15.0 4.3
4/30/26 - 1600 80.6 34 49.4 60.5 SSE | 168 3.8 9.5 0.0 13.3 0.00 - - 0.00 39.2 81.5 9.5 4.3
4/30/26 - 1500 79.2 35 48.8 59.9 SE | 146 3.9 9.0 0.0 13.4 0.00 - - 0.00 39.2 80.3 9.0 4.3
4/30/26 - 1400 78.1 37 49.7 60.1 SE | 143 3.6 8.6 0.0 13.4 0.00 - - 0.00 39.2 79.5 9.0 4.3
4/30/26 - 1300 75.2 44 51.6 60.5 SE | 130 3.7 9.0 0.0 13.4 0.00 - - 0.00 39.2 77.3 9.0 4.3
4/30/26 - 1200 72.2 51 53.0 60.5 ESE | 122 2.9 7.3 0.0 13.5 0.00 - - 0.00 39.2 74.4 7.3 4.3
4/30/26 - 1100 68.0 52 49.6 57.4 ESE | 102 1.7 5.6 0.0 13.6 0.00 - - 0.00 39.2 70.7 5.6 4.3
4/30/26 - 1000 62.2 59 47.5 54.4 ESE | 120 1.7 4.4 0.0 12.8 0.00 - - 0.00 39.2 65.1 4.4 4.3
4/30/26 - 0900 55.2 78 48.2 52.0 ESE | 123 1.1 3.5 0.0 12.7 0.00 - - 0.00 39.2 59.5 3.5 4.3
4/30/26 - 0800 43.9 99 43.7 44.2 NNW | 337 0.1 1.8 59.5 12.6 0.00 - - 0.00 39.2 49.5 1.8 4.3
4/30/26 - 0700 39.9 98 39.5 39.9 NW | 319 0.1 0.9 60.0 12.6 0.00 - - 0.00 39.2 45.8 1.6 3.3
4/30/26 - 0600 39.9 98 39.4 39.8 NW | 316 0.1 1.2 60.0 12.6 0.00 - - 0.00 39.4 45.8 1.6 2.3
4/30/26 - 0500 41.0 97 40.3 40.9 WNW | 298 0.1 1.1 60.0 12.6 0.00 - - 0.00 39.8 45.8 1.6 1.3
4/30/26 - 0400 41.7 97 40.9 41.6 N | 352 0.2 1.6 18.7 12.6 0.00 - - 0.00 41.0 45.8 1.6 0.3
4/30/26 - 0300 42.7 95 41.4 42.4 NNW | 328 0.2 1.5 0.0 12.6 0.00 - - 0.00 41.9 45.8 1.5 0.0
4/30/26 - 0200 44.5 92 42.3 43.8 SSE | 162 0.0 0.8 0.0 12.7 0.00 - - 0.00 42.9 45.8 0.8 0.0
4/30/26 - 0100 45.7 90 42.8 44.7 NNW | 330 0.9 3.6 0.0 12.7 0.00 - - 0.00 38.6 77.5 15.2 5.4
4/30/26 - 0000 48.3 85 43.9 46.5 NW | 315 0.5 3.4 0.0 12.8 0.00 - - 0.00 38.6 77.5 15.2 5.4
4/29/26 - 2300 50.6 79 44.4 47.9 NW | 325 1.0 5.5 0.0 12.9 0.00 - - 0.00 38.6 77.5 15.2 5.4
4/29/26 - 2200 57.7 61 43.6 50.6 NNW | 335 1.6 8.1 0.0 12.9 0.00 - - 0.00 38.6 77.5 15.2 5.4
Max 80.6 100 59.3 65.7 - 6.0 17.9 60.0 13.9 0.03 0.20 0.08 0.08 54.6 81.6 17.9 5.4
Avg 58.9 76 50.1 54.1 - 2.4 7.5 6.9 13.0 0.00 0.05 0.06 - - - - -
Min 39.9 34 39.4 39.8 - 0.0 0.8 0.0 12.6 0.00 0.01 0.01 0.00 38.6 45.8 0.8 0.0
Total - - - - - - - - - 0.08 - - - - - - -

Chilling & Growing Degree Days

Upper Lake

Daily Data | America/Los_Angeles
as of 5/6/26 9:56 PM PDT
Date Chilling <=45F (hrs) Chill Hrs 32-45F (hrs) Utah Chilling (Units) Chill Portions GDDs (DL) GDDs (Mx/Mn) Seas GDDs (DL) Seas GDDs (Smpl)
5/5/26 0.0 0.0 -3.5 - 8.4 10.9 221 155
5/4/26 0.0 0.0 9.5 - 2.9 3.2 212 144
5/3/26 0.0 0.0 2.5 - 5.9 6.8 210 141
5/2/26 0.0 0.0 -4.5 - 10.6 11.8 204 134
5/1/26 1.5 1.5 -5.5 - 14.1 12.5 193 122
4/30/26 6.2 6.2 -3.5 - 12.9 10.4 179 110
4/29/26 6.2 6.2 -0.5 86 10.5 8.1 166 99
Max 6.2 6.2 9.5 - 14.1 12.5 - -
Avg 2.0 2.0 -0.8 - 9.3 9.1 - -
Min 0.0 0.0 -5.5 - 2.9 3.2 - -
Total 13.9 13.9 -5.5 - 65.3 63.7 - -
Calm: 0.1%

Upper Lake Climate Summary

Current Year

Current Year | Showing 1/1/26 - 5/5/26
as of 5/6/26 9:56 PM PDT
Temperature (°F) Max Wind Gust (mph) Precip (in) Days
Month Days Avg High Avg Low Max Min Avg Max Total Daily Min Temp < 28 Daily Min Temp < 32 Daily Max Temp > 90 Daily Max Temp > 100 Daily Rain > 0.01 Daily Rain > 0.1
Jan 2026 31 61.8 32.7 73.9 22.9 10.8 26.6 4.87 10 21 0 0 8 7
Feb 2026 28 61 36.8 75.3 24.4 14.5 28.4 6.04 3 11 0 0 11 9
Mar 2026 31 76.3 38.4 92.5 30.5 16.9 27.2 0.03 0 1 1 0 1 0
Apr 2026 30 67.8 39 81.6 29.4 15.7 22.1 3.57 0 2 0 0 7 6
May 2026 5 71.3 46.8 81.3 43.8 14.9 17.9 0.08 0 0 0 0 1 0
Total 125 - - - - - - 14.59 13 35 1 0 28 22
Average 25 67 37.1 67 37.1 14.5 - 2.92 2.6 7 0.2 0 5.6 4.4
Maximum 31 76.3 46.8 92.5 - - 28.4 6.04 10 21 1 0 11 9
Minimum 5 61 32.7 - 22.9 - - 0.03 0 0 0 0 1 0

Upper Lake Climate Summary

Last Year

Last Year | Showing 1/1/25 - 12/31/25
as of 5/6/26 9:56 PM PDT
Temperature (°F) Max Wind Gust (mph) Precip (in) Days
Month Days Avg High Avg Low Max Min Avg Max Total Daily Min Temp < 28 Daily Min Temp < 32 Daily Max Temp > 90 Daily Max Temp > 100 Daily Rain > 0.01 Daily Rain > 0.1
Jan 2025 31 61 29.4 69.1 22.6 11.5 23.4 1.48 16 24 0 0 4 3
Feb 2025 28 57.8 34 76.9 22.6 14.1 23.8 9.25 5 16 0 0 11 8
Mar 2025 31 58.9 36.5 81.1 28.3 17.6 27.8 4.93 0 10 0 0 14 8
Apr 2025 30 71.2 40 83.6 31 16.2 21.6 1.26 0 2 0 0 5 4
May 2025 31 78.6 43.3 97.6 37.1 18.2 30.7 0.19 0 0 2 0 1 1
Jun 2025 30 88 48.9 96.1 42.7 17 24.9 0 0 0 13 0 0 0
Jul 2025 31 92.3 51.7 103.5 42.5 16.4 22.6 0 0 0 19 4 0 0
Aug 2025 31 94.4 50.9 102.3 39.6 16.7 25.9 0 0 0 25 6 0 0
Sep 2025 30 85.6 51.1 98.4 44.8 14.7 23.1 1.16 0 0 11 0 5 3
Oct 2025 31 72.1 42.4 87.1 35.2 12.5 20.8 1.28 0 0 0 0 7 3
Nov 2025 30 65.8 38.6 78.1 28 12.4 21.9 4.46 0 7 0 0 9 7
Dec 2025 31 61.6 35.4 72.5 25.8 11.5 30.9 8.23 5 18 0 0 14 14
Total 365 - - - - - - 32.24 26 77 70 10 70 51
Average 30.4 74 41.9 74 41.9 14.9 - 2.69 2.2 6.4 5.8 0.8 5.8 4.2
Maximum 31 94.4 51.7 103.5 - - 30.9 9.25 16 24 25 6 14 14
Minimum 28 57.8 29.4 - 22.6 - - 0 0 0 0 0 0 0

Climate Summary 2019

Upper Lake

1/1/2019 - 12/31/2019 | Showing 1/1/19 - 12/31/19
as of 5/6/26 9:56 PM PDT
Temperature (°F) Max Wind Gust (mph) Precip (in) Days
Month Days Avg High Avg Low Max Min Avg Max Total Daily Min Temp < 28 Daily Min Temp < 32 Daily Max Temp > 90 Daily Max Temp > 100 Daily Rain > 0.01 Daily Rain > 0.1
Jan 2019 31 57.8 36.4 71.8 24.8 13.7 26.4 9.44 3 9 0 0 11 11
Feb 2019 28 49.6 34 57.1 23 17.1 31 15.92 8 12 0 0 19 16
Mar 2019 31 59.4 37.1 74 27.9 14.7 26.8 6.68 1 4 0 0 15 11
Apr 2019 30 71.5 44.9 89.7 37.6 15 28.2 0.94 0 0 0 0 8 2
May 2019 31 73.7 44.5 86.5 35.8 14.6 20.2 3.63 0 0 0 0 9 5
Jun 2019 30 87.2 50.8 97 39.1 13.4 20.7 0.01 0 0 12 0 0 0
Jul 2019 31 89.9 53.2 97.5 47.9 13.4 17.4 0.03 0 0 17 0 1 0
Aug 2019 31 91.7 53.8 98.8 48 13.1 22.2 0.01 0 0 21 0 0 0
Sep 2019 30 83.1 46.8 97.4 33.5 13.6 25.8 0.24 0 0 11 0 3 1
Oct 2019 31 77 34.1 88.6 22.1 13.3 30.9 0.03 4 10 0 0 1 0
Nov 2019 30 69.8 32.5 82.9 23.7 12.4 37.9 1.66 6 15 0 0 3 3
Dec 2019 31 53.7 37.7 61.9 24 12.6 30.2 6.33 4 10 0 0 17 10
Total 365 - - - - - - 44.92 26 60 61 0 87 59
Average 30.4 72.2 42.2 72.2 42.2 13.9 - 3.74 2.2 5 5.1 0 7.2 4.9
Maximum 31 91.7 53.8 98.8 - - 37.9 15.92 8 15 21 0 19 16
Minimum 28 49.6 32.5 - 22.1 - - 0.01 0 0 0 0 0 0

Climate Summary 2018

Upper Lake

1/1/2018 - 12/31/2018 | Showing 1/1/18 - 12/31/18
as of 5/6/26 9:56 PM PDT
Temperature (°F) Max Wind Gust (mph) Precip (in) Days
Month Days Avg High Avg Low Max Min Avg Max Total Daily Min Temp < 28 Daily Min Temp < 32 Daily Max Temp > 90 Daily Max Temp > 100 Daily Rain > 0.01 Daily Rain > 0.1
Jan 2018 31 56.5 36.2 69.7 27.7 - - 5.62 2 8 0 0 13 9
Feb 2018 28 62.4 29.1 78.7 20.6 - - 0.9 13 19 0 0 3 2
Mar 2018 31 60.7 34 83.7 24.1 - - 5.7 3 11 0 0 16 13
Apr 2018 30 69 39.5 84.5 30.2 15.1 20.4 4.78 0 1 0 0 8 5
May 2018 31 77.9 45.3 92.1 35.3 14.7 25.2 0.26 0 0 1 0 2 1
Jun 2018 30 86.3 47.6 97.4 37.7 14.3 20.5 0 0 0 11 0 0 0
Jul 2018 31 95.2 53.2 103.1 46.2 13.1 18.5 0 0 0 24 4 0 0
Aug 2018 31 90.9 50.3 97.2 46.6 13.3 18.7 0 0 0 18 0 0 0
Sep 2018 30 86.7 44.5 96.2 39.5 13 18.8 0 0 0 12 0 0 0
Oct 2018 31 77.7 40.7 85.6 31.9 11.6 20.7 1.25 0 1 0 0 4 3
Nov 2018 30 66.4 32.5 82.4 20.4 10 18.6 5.43 13 15 0 0 7 7
Dec 2018 31 55.2 33.6 63.7 26.1 13 27.1 3.34 4 14 0 0 12 7
Total 365 - - - - - - 27.28 35 69 66 4 65 47
Average 30.4 73.8 40.6 73.8 40.6 13 - 2.27 2.9 5.8 5.5 0.3 5.4 3.9
Maximum 31 95.2 53.2 103.1 - - 27.1 5.7 13 19 24 4 16 13
Minimum 28 55.2 29.1 - 20.4 - - 0 0 0 0 0 0 0

Climate Summary 2017

Upper Lake

1/1/2017 - 12/31/2017 | Showing 1/1/17 - 12/31/17
as of 5/6/26 9:56 PM PDT
Temperature (°F) Max Wind Gust (mph) Precip (in) Days
Month Days Avg High Avg Low Max Min Avg Max Total Daily Min Temp < 28 Daily Min Temp < 32 Daily Max Temp > 90 Daily Max Temp > 100 Daily Rain > 0.01 Daily Rain > 0.1
Jan 2017 31 51.8 32.4 63.8 20.8 - - 16.02 10 17 0 0 16 14
Feb 2017 27 55.9 37.8 69.2 24.2 - - 10.98 4 8 0 0 16 14
Mar 2017 31 64.5 38.3 80.1 26.3 - - 3.42 2 3 0 0 10 8
Apr 2017 30 65.8 40.3 83.8 31.1 - - 4.03 0 2 0 0 12 7
May 2017 31 80.5 45 96.1 36.6 - - 0 0 0 5 0 0 0
Jun 2017 30 87.6 51.4 104.7 39.8 - - 0.21 0 0 12 6 1 1
Jul 2017 31 94.1 52.3 99.3 47.3 - - 0 0 0 28 0 0 0
Aug 2017 31 95 54.2 103.7 47.6 - - 0 0 0 29 4 0 0
Sep 2017 30 85.6 48.4 104.2 33.9 - - 0.01 0 0 8 3 0 0
Oct 2017 31 79.2 36.3 90.6 27.2 - - 0.37 1 5 1 0 1 1
Nov 2017 30 59.3 38.3 70.8 25.9 - - 5.32 2 7 0 0 13 8
Dec 2017 31 60.1 27.5 71.2 21.7 - - 0.13 19 30 0 0 2 0
Total 364 - - - - - - 40.49 38 72 83 13 71 53
Average 30.3 73.5 41.9 73.5 41.9 - - 3.37 3.2 6 6.9 1.1 5.9 4.4
Maximum 31 95 54.2 104.7 - - - 16.02 19 30 29 6 16 14
Minimum 27 51.8 27.5 - 20.8 - - 0 0 0 0 0 0 0

Climate Summary 2016

Upper Lake

1/1/2016 - 12/31/2016 | Showing 1/1/16 - 12/31/16
as of 5/6/26 9:56 PM PDT
Temperature (°F) Max Wind Gust (mph) Precip (in) Days
Month Days Avg High Avg Low Max Min Avg Max Total Daily Min Temp < 28 Daily Min Temp < 32 Daily Max Temp > 90 Daily Max Temp > 100 Daily Rain > 0.01 Daily Rain > 0.1
Jan 2016 31 52.2 38.2 63.8 20.4 - - 11.01 2 3 0 0 20 19
Feb 2016 29 66 36.2 79.5 29.8 - - 1.62 0 4 0 0 5 4
Mar 2016 31 62.5 38.9 77.5 30.1 - - 8.58 0 2 0 0 16 12
Apr 2016 30 71.2 40.1 85.2 32 - - 1.4 0 0 0 0 6 4
May 2016 31 77.7 45.9 96.8 39.9 - - 0.33 0 0 3 0 4 1
Jun 2016 30 87 48.5 99 42.7 - - 0.47 0 0 13 0 2 1
Jul 2016 31 91.9 50.2 102.3 42.3 - - 0 0 0 18 4 0 0
Aug 2016 31 93.4 49.3 99.5 42.9 - - 0 0 0 26 0 0 0
Sep 2016 30 87.7 44.5 97.4 38.2 - - 0 0 0 12 0 0 0
Oct 2016 31 68.7 43.5 87.2 34.3 - - 6.53 0 0 0 0 14 13
Nov 2016 30 62.6 37.8 76.1 27.3 - - 4.27 3 5 0 0 13 6
Dec 2016 31 53.5 29.6 65.6 19.9 - - 7.22 14 23 0 0 8 7
Total 366 - - - - - - 41.43 19 37 72 4 88 67
Average 30.5 72.9 41.9 72.9 41.9 - - 3.45 1.6 3.1 6 0.3 7.3 5.6
Maximum 31 93.4 50.2 102.3 - - - 11.01 14 23 26 4 20 19
Minimum 29 52.2 29.6 - 19.9 - - 0 0 0 0 0 0 0